createdAt,value
2022-10-10T00:00:03.208Z,7.00
2022-10-10T00:01:03.127Z,7.00
2022-10-10T00:02:03.247Z,7.00
2022-10-10T00:03:03.230Z,7.00
2022-10-10T00:04:03.246Z,7.00
2022-10-10T00:05:03.380Z,7.00
2022-10-10T00:06:04.227Z,7.00
2022-10-10T00:07:03.204Z,7.00
2022-10-10T00:08:03.249Z,7.00
2022-10-10T00:09:03.396Z,7.00
2022-10-10T00:10:03.819Z,7.10
2022-10-10T00:11:02.639Z,7.10
2022-10-10T00:12:02.619Z,7.10
2022-10-10T00:13:02.664Z,7.10
2022-10-10T00:14:02.949Z,7.10
2022-10-10T00:15:02.955Z,7.10
2022-10-10T00:16:02.994Z,7.10
2022-10-10T00:17:03.120Z,7.10
2022-10-10T00:18:03.085Z,7.10
2022-10-10T00:19:03.020Z,7.10
2022-10-10T00:20:03.141Z,7.10
2022-10-10T00:21:03.139Z,7.10
2022-10-10T00:22:03.675Z,7.10
2022-10-10T00:23:03.617Z,7.10
2022-10-10T00:24:03.602Z,7.10
2022-10-10T00:25:03.640Z,7.10
2022-10-10T00:26:06.934Z,7.20
2022-10-10T00:27:02.718Z,7.20
2022-10-10T00:28:02.716Z,7.20
2022-10-10T00:29:02.721Z,7.20
2022-10-10T00:30:02.690Z,7.20
2022-10-10T00:31:02.720Z,7.20
2022-10-10T00:32:03.228Z,7.20
2022-10-10T00:33:03.236Z,7.20
2022-10-10T00:34:03.252Z,7.20
2022-10-10T00:35:03.812Z,7.20
2022-10-10T00:36:02.762Z,7.20
2022-10-10T00:37:02.810Z,7.20
2022-10-10T00:38:02.772Z,7.20
2022-10-10T00:39:02.731Z,7.30
2022-10-10T00:40:02.826Z,7.20
2022-10-10T00:41:02.897Z,7.30
2022-10-10T00:42:02.867Z,7.30
2022-10-10T00:43:02.951Z,7.30
2022-10-10T00:44:03.027Z,7.30
2022-10-10T00:45:03.123Z,7.30
2022-10-10T00:46:03.180Z,7.30
2022-10-10T00:47:03.221Z,7.30
2022-10-10T00:48:03.250Z,7.30
2022-10-10T00:49:03.407Z,7.30
2022-10-10T00:50:03.337Z,7.30
2022-10-10T00:51:03.270Z,7.30
2022-10-10T00:52:03.373Z,7.40
2022-10-10T00:53:03.387Z,7.30
2022-10-10T00:54:03.336Z,7.40
2022-10-10T00:55:03.431Z,7.40
2022-10-10T00:56:03.437Z,7.40
2022-10-10T00:57:03.444Z,7.40
2022-10-10T00:58:03.434Z,7.40
2022-10-10T00:59:03.477Z,7.40
2022-10-10T01:00:02.613Z,7.40
2022-10-10T01:01:02.644Z,7.40
2022-10-10T01:02:02.685Z,7.40
2022-10-10T01:03:02.708Z,7.40
2022-10-10T01:04:02.767Z,7.40
2022-10-10T01:05:02.680Z,7.50
2022-10-10T01:06:02.667Z,7.50
2022-10-10T01:07:02.618Z,7.50
2022-10-10T01:08:02.614Z,7.50
2022-10-10T01:09:02.655Z,7.50
2022-10-10T01:10:02.734Z,7.50
2022-10-10T01:11:02.728Z,7.50
2022-10-10T01:12:02.797Z,7.50
2022-10-10T01:13:02.830Z,7.60
2022-10-10T01:14:02.816Z,7.60
2022-10-10T01:15:02.912Z,7.60
2022-10-10T01:16:02.855Z,7.60
2022-10-10T01:17:02.995Z,7.60
2022-10-10T01:18:03.200Z,7.60
2022-10-10T01:19:03.105Z,7.60
2022-10-10T01:20:03.073Z,7.70
2022-10-10T01:21:03.243Z,7.70
2022-10-10T01:22:03.198Z,7.70
2022-10-10T01:23:03.179Z,7.70
2022-10-10T01:24:03.219Z,7.70
2022-10-10T01:25:03.159Z,7.70
2022-10-10T01:26:03.174Z,7.70
2022-10-10T01:27:03.258Z,7.70
2022-10-10T01:28:03.176Z,7.70
2022-10-10T01:29:03.232Z,7.70
2022-10-10T01:30:03.302Z,7.80
2022-10-10T01:31:03.291Z,7.80
2022-10-10T01:32:03.318Z,7.80
2022-10-10T01:33:03.325Z,7.80
2022-10-10T01:34:04.413Z,7.80
2022-10-10T01:35:03.407Z,7.80
2022-10-10T01:36:04.745Z,7.80
2022-10-10T01:37:02.795Z,7.80
2022-10-10T01:38:02.822Z,7.80
2022-10-10T01:39:02.906Z,7.80
2022-10-10T01:40:02.870Z,7.90
2022-10-10T01:41:02.880Z,7.90
2022-10-10T01:42:04.104Z,7.90
2022-10-10T01:43:02.958Z,7.90
2022-10-10T01:44:02.821Z,7.90
2022-10-10T01:45:02.955Z,7.90
2022-10-10T01:46:03.128Z,7.90
2022-10-10T01:47:03.124Z,7.90
2022-10-10T01:48:03.079Z,7.90
2022-10-10T01:49:03.010Z,8.00
2022-10-10T01:50:03.046Z,8.00
2022-10-10T01:51:03.087Z,8.00
2022-10-10T01:52:03.141Z,8.00
2022-10-10T01:53:03.165Z,8.00
2022-10-10T01:54:03.272Z,8.00
2022-10-10T01:55:03.379Z,8.00
2022-10-10T01:56:03.282Z,8.00
2022-10-10T01:57:03.264Z,8.00
2022-10-10T01:58:03.370Z,8.00
2022-10-10T01:59:03.314Z,8.00
2022-10-10T02:00:03.381Z,8.00
2022-10-10T02:01:03.431Z,8.10
2022-10-10T02:02:03.441Z,8.10
2022-10-10T02:03:04.646Z,8.10
2022-10-10T02:04:02.625Z,8.10
2022-10-10T02:05:02.716Z,8.10
2022-10-10T02:06:02.807Z,8.10
2022-10-10T02:10:03.221Z,8.10
2022-10-10T02:12:03.493Z,8.10
2022-10-10T02:13:03.438Z,8.10
2022-10-10T02:14:03.532Z,8.20
2022-10-10T02:15:02.772Z,8.20
2022-10-10T02:16:02.717Z,8.20
2022-10-10T02:17:02.793Z,8.20
2022-10-10T02:18:02.797Z,8.20
2022-10-10T02:19:02.794Z,8.20
2022-10-10T02:20:02.940Z,8.20
2022-10-10T02:21:02.946Z,8.20
2022-10-10T02:22:03.061Z,8.20
2022-10-10T02:23:03.426Z,8.20
2022-10-10T02:24:04.540Z,8.20
2022-10-10T02:25:03.388Z,8.20
2022-10-10T02:26:03.541Z,8.20
2022-10-10T02:27:03.539Z,8.20
2022-10-10T02:28:03.559Z,8.30
2022-10-10T02:29:06.099Z,8.30
2022-10-10T02:30:02.998Z,8.30
2022-10-10T02:31:03.084Z,8.30
2022-10-10T02:32:03.009Z,8.30
2022-10-10T02:33:03.119Z,8.30
2022-10-10T02:34:03.360Z,8.30
2022-10-10T02:35:03.335Z,8.30
2022-10-10T02:36:03.345Z,8.40
2022-10-10T02:37:03.355Z,8.40
2022-10-10T02:38:03.345Z,8.40
2022-10-10T02:39:03.342Z,8.40
2022-10-10T02:40:03.387Z,8.40
2022-10-10T02:41:03.475Z,8.50
2022-10-10T02:42:03.441Z,8.50
2022-10-10T02:43:03.562Z,8.50
2022-10-10T02:44:02.741Z,8.50
2022-10-10T02:45:02.650Z,8.50
2022-10-10T02:46:02.709Z,8.50
2022-10-10T02:47:02.699Z,8.50
2022-10-10T02:48:02.726Z,8.60
2022-10-10T02:49:02.822Z,8.60
2022-10-10T02:50:02.774Z,8.60
2022-10-10T02:51:02.799Z,8.60
2022-10-10T02:52:02.776Z,8.60
2022-10-10T02:53:02.835Z,8.60
2022-10-10T02:54:02.807Z,8.60
2022-10-10T02:55:02.852Z,8.60
2022-10-10T02:56:02.810Z,8.60
2022-10-10T02:57:02.944Z,8.60
2022-10-10T02:58:02.888Z,8.60
2022-10-10T02:59:02.991Z,8.60
2022-10-10T03:00:03.042Z,8.60
2022-10-10T03:01:03.119Z,8.70
2022-10-10T03:02:03.245Z,8.60
2022-10-10T03:03:03.218Z,8.60
2022-10-10T03:04:03.294Z,8.70
2022-10-10T03:05:05.608Z,8.60
2022-10-10T03:06:03.243Z,8.70
2022-10-10T03:07:03.438Z,8.60
2022-10-10T03:08:05.883Z,8.60
2022-10-10T03:09:03.598Z,8.70
2022-10-10T03:10:03.516Z,8.60
2022-10-10T03:11:03.487Z,8.60
2022-10-10T03:12:03.578Z,8.60
2022-10-10T03:13:03.582Z,8.60
2022-10-10T03:14:02.632Z,8.60
2022-10-10T03:15:02.658Z,8.60
2022-10-10T03:16:02.662Z,8.60
2022-10-10T03:17:02.725Z,8.60
2022-10-10T03:18:02.732Z,8.60
2022-10-10T03:19:02.614Z,8.60
2022-10-10T03:20:02.689Z,8.60
2022-10-10T03:21:02.625Z,8.60
2022-10-10T03:22:03.685Z,8.60
2022-10-10T03:23:02.618Z,8.60
2022-10-10T03:24:02.631Z,8.50
2022-10-10T03:25:03.593Z,8.50
2022-10-10T03:26:03.587Z,8.50
2022-10-10T03:27:02.699Z,8.50
2022-10-10T03:28:02.663Z,8.50
2022-10-10T03:29:02.812Z,8.50
2022-10-10T03:30:03.033Z,8.50
2022-10-10T03:31:03.070Z,8.50
2022-10-10T03:32:03.021Z,8.40
2022-10-10T03:33:03.202Z,8.40
2022-10-10T03:34:03.198Z,8.40
2022-10-10T03:35:03.289Z,8.40
2022-10-10T03:36:03.294Z,8.40
2022-10-10T03:37:03.335Z,8.40
2022-10-10T03:38:03.354Z,8.40
2022-10-10T03:39:03.286Z,8.40
2022-10-10T03:40:03.247Z,8.40
2022-10-10T03:41:03.373Z,8.30
2022-10-10T03:42:03.506Z,8.30
2022-10-10T03:43:03.603Z,8.30
2022-10-10T03:44:03.553Z,8.30
2022-10-10T03:45:03.508Z,8.30
2022-10-10T03:46:03.518Z,8.30
2022-10-10T03:47:03.611Z,8.30
2022-10-10T03:48:03.660Z,8.30
2022-10-10T03:49:03.586Z,8.30
2022-10-10T03:50:02.741Z,8.30
2022-10-10T03:51:02.745Z,8.30
2022-10-10T03:52:02.819Z,8.30
2022-10-10T03:53:02.750Z,8.30
2022-10-10T03:54:02.777Z,8.20
2022-10-10T03:55:02.728Z,8.30
2022-10-10T03:56:02.751Z,8.30
2022-10-10T03:57:02.826Z,8.20
2022-10-10T03:58:02.968Z,8.30
2022-10-10T03:59:03.924Z,8.20
2022-10-10T04:00:02.865Z,8.20
2022-10-10T04:01:02.999Z,8.20
2022-10-10T04:02:02.945Z,8.20
2022-10-10T04:03:02.911Z,8.20
2022-10-10T04:04:03.068Z,8.20
2022-10-10T04:05:03.122Z,8.20
2022-10-10T04:06:03.063Z,8.20
2022-10-10T04:07:03.178Z,8.20
2022-10-10T04:08:03.165Z,8.20
2022-10-10T04:09:03.158Z,8.20
2022-10-10T04:10:03.186Z,8.20
2022-10-10T04:11:03.412Z,8.20
2022-10-10T04:12:03.342Z,8.20
2022-10-10T04:13:03.433Z,8.20
2022-10-10T04:14:03.531Z,8.20
2022-10-10T04:15:03.556Z,8.20
2022-10-10T04:16:03.476Z,8.20
2022-10-10T04:17:03.616Z,8.20
2022-10-10T04:18:03.568Z,8.20
2022-10-10T04:19:02.750Z,8.20
2022-10-10T04:20:02.738Z,8.20
2022-10-10T04:21:02.679Z,8.20
2022-10-10T04:22:02.832Z,8.20
2022-10-10T04:23:02.848Z,8.20
2022-10-10T04:24:03.007Z,8.20
2022-10-10T04:25:03.261Z,8.20
2022-10-10T04:26:03.084Z,8.20
2022-10-10T04:27:03.039Z,8.20
2022-10-10T04:28:03.068Z,8.20
2022-10-10T04:29:03.037Z,8.20
2022-10-10T04:30:03.755Z,8.20
2022-10-10T04:31:02.757Z,8.20
2022-10-10T04:32:02.772Z,8.30
2022-10-10T04:33:03.935Z,8.30
2022-10-10T04:34:03.052Z,8.30
2022-10-10T04:35:03.077Z,8.30
2022-10-10T04:36:03.161Z,8.30
2022-10-10T04:37:03.168Z,8.30
2022-10-10T04:38:03.155Z,8.30
2022-10-10T04:39:03.239Z,8.30
2022-10-10T04:40:03.308Z,8.30
2022-10-10T04:41:03.294Z,8.30
2022-10-10T04:42:03.361Z,8.30
2022-10-10T04:43:03.371Z,8.30
2022-10-10T04:44:03.489Z,8.30
2022-10-10T04:45:03.543Z,8.30
2022-10-10T04:46:03.522Z,8.30
2022-10-10T04:47:02.634Z,8.30
2022-10-10T04:48:02.701Z,8.40
2022-10-10T04:49:02.786Z,8.40
2022-10-10T04:50:02.708Z,8.40
2022-10-10T04:51:02.811Z,8.40
2022-10-10T04:52:02.795Z,8.50
2022-10-10T04:53:02.795Z,8.50
2022-10-10T04:54:02.696Z,8.50
2022-10-10T04:55:02.720Z,8.50
2022-10-10T04:56:02.782Z,8.50
2022-10-10T04:57:02.828Z,8.60
2022-10-10T04:58:02.836Z,8.60
2022-10-10T04:59:02.863Z,8.60
2022-10-10T05:00:02.860Z,8.60
2022-10-10T05:01:03.048Z,8.60
2022-10-10T05:02:02.972Z,8.60
2022-10-10T05:03:02.990Z,8.60
2022-10-10T05:04:02.945Z,8.60
2022-10-10T05:05:03.007Z,8.60
2022-10-10T05:06:03.002Z,8.60
2022-10-10T05:07:03.954Z,8.60
2022-10-10T05:08:02.978Z,8.60
2022-10-10T05:09:03.061Z,8.60
2022-10-10T05:10:03.123Z,8.60
2022-10-10T05:11:03.068Z,8.60
2022-10-10T05:12:03.177Z,8.70
2022-10-10T05:13:03.113Z,8.60
2022-10-10T05:14:03.214Z,8.70
2022-10-10T05:15:03.285Z,8.70
2022-10-10T05:16:03.361Z,8.70
2022-10-10T05:17:03.544Z,8.70
2022-10-10T05:18:03.493Z,8.70
2022-10-10T05:19:03.488Z,8.70
2022-10-10T05:20:03.442Z,8.70
2022-10-10T05:21:03.905Z,8.70
2022-10-10T05:22:02.727Z,8.70
2022-10-10T05:23:02.692Z,8.70
2022-10-10T05:24:02.710Z,8.70
2022-10-10T05:25:02.765Z,8.70
2022-10-10T05:26:02.897Z,8.70
2022-10-10T05:27:02.841Z,8.70
2022-10-10T05:28:02.899Z,8.70
2022-10-10T05:29:02.875Z,8.70
2022-10-10T05:30:02.972Z,8.70
2022-10-10T05:31:02.931Z,8.70
2022-10-10T05:32:06.537Z,8.80
2022-10-10T05:33:02.885Z,8.80
2022-10-10T05:34:02.838Z,8.80
2022-10-10T05:35:02.882Z,8.80
2022-10-10T05:36:04.144Z,8.80
2022-10-10T05:37:03.849Z,8.80
2022-10-10T05:38:02.841Z,8.80
2022-10-10T05:39:02.964Z,8.80
2022-10-10T05:40:03.007Z,8.80
2022-10-10T05:41:02.962Z,8.80
2022-10-10T05:42:02.945Z,8.80
2022-10-10T05:43:02.990Z,8.80
2022-10-10T05:44:03.734Z,8.80
2022-10-10T05:45:02.930Z,8.80
2022-10-10T05:46:03.056Z,8.80
2022-10-10T05:47:03.013Z,8.80
2022-10-10T05:48:03.059Z,8.80
2022-10-10T05:49:02.906Z,8.80
2022-10-10T05:50:03.258Z,8.70
2022-10-10T05:51:03.194Z,8.70
2022-10-10T05:52:03.990Z,8.70
2022-10-10T05:53:03.041Z,8.70
2022-10-10T05:54:02.997Z,8.70
2022-10-10T05:55:03.019Z,8.70
2022-10-10T05:56:02.914Z,8.70
2022-10-10T05:57:02.853Z,8.60
2022-10-10T05:58:02.915Z,8.60
2022-10-10T05:59:02.892Z,8.60
2022-10-10T06:00:03.028Z,8.60
2022-10-10T06:01:03.121Z,8.60
2022-10-10T06:02:03.282Z,8.60
2022-10-10T06:03:03.242Z,8.60
2022-10-10T06:04:03.138Z,8.60
2022-10-10T06:05:03.177Z,8.60
2022-10-10T06:06:03.241Z,8.60
2022-10-10T06:07:03.280Z,8.60
2022-10-10T06:08:09.129Z,8.60
2022-10-10T06:09:03.411Z,8.60
2022-10-10T06:10:03.428Z,8.60
2022-10-10T06:11:03.471Z,8.60
2022-10-10T06:12:03.488Z,8.60
2022-10-10T06:13:03.557Z,8.60
2022-10-10T06:14:03.625Z,8.60
2022-10-10T06:15:03.518Z,8.60
2022-10-10T06:16:03.550Z,8.60
2022-10-10T06:17:02.821Z,8.60
2022-10-10T06:18:02.924Z,8.60
2022-10-10T06:19:03.211Z,8.60
2022-10-10T06:20:03.135Z,8.60
2022-10-10T06:21:03.248Z,8.60
2022-10-10T06:22:03.181Z,8.60
2022-10-10T06:23:03.192Z,8.60
2022-10-10T06:24:03.307Z,8.70
2022-10-10T06:25:03.404Z,8.70
2022-10-10T06:26:03.393Z,8.70
2022-10-10T06:27:03.388Z,8.70
2022-10-10T06:28:03.391Z,8.70
2022-10-10T06:29:03.420Z,8.70
2022-10-10T06:30:03.412Z,8.70
2022-10-10T06:31:03.374Z,8.80
2022-10-10T06:32:03.394Z,8.80
2022-10-10T06:33:03.455Z,8.80
2022-10-10T06:34:02.819Z,8.80
2022-10-10T06:35:02.756Z,8.90
2022-10-10T06:36:02.914Z,9.00
2022-10-10T06:37:02.980Z,9.10
2022-10-10T06:38:02.939Z,9.20
2022-10-10T06:39:02.973Z,9.20
2022-10-10T06:40:02.957Z,9.30
2022-10-10T06:41:03.096Z,9.40
2022-10-10T06:42:03.114Z,9.50
2022-10-10T06:43:03.180Z,9.50
2022-10-10T06:44:03.333Z,9.60
2022-10-10T06:45:03.254Z,9.60
2022-10-10T06:46:03.417Z,9.70
2022-10-10T06:47:03.335Z,9.70
2022-10-10T06:48:03.276Z,9.80
2022-10-10T06:49:03.276Z,9.80
2022-10-10T06:50:03.196Z,9.90
2022-10-10T06:51:03.286Z,9.90
2022-10-10T06:52:03.296Z,10.00
2022-10-10T06:53:03.350Z,10.00
2022-10-10T06:54:03.346Z,10.00
2022-10-10T06:55:03.236Z,10.10
2022-10-10T06:56:03.284Z,10.10
2022-10-10T06:57:03.362Z,10.10
2022-10-10T06:58:03.319Z,10.20
2022-10-10T06:59:03.482Z,10.20
2022-10-10T07:00:03.519Z,10.30
2022-10-10T07:01:03.508Z,10.40
2022-10-10T07:02:03.556Z,10.40
2022-10-10T07:03:03.523Z,10.50
2022-10-10T07:04:03.390Z,10.50
2022-10-10T07:05:03.369Z,10.50
2022-10-10T07:06:03.355Z,10.50
2022-10-10T07:07:03.380Z,10.50
2022-10-10T07:08:03.376Z,10.50
2022-10-10T07:09:03.371Z,10.50
2022-10-10T07:10:03.375Z,10.50
2022-10-10T07:11:03.419Z,10.50
2022-10-10T07:12:03.406Z,10.50
2022-10-10T07:13:03.468Z,10.50
2022-10-10T07:14:03.505Z,10.50
2022-10-10T07:15:03.437Z,10.50
2022-10-10T07:16:03.538Z,10.50
2022-10-10T07:17:03.510Z,10.60
2022-10-10T07:18:03.488Z,10.70
2022-10-10T07:19:03.443Z,10.70
2022-10-10T07:20:03.471Z,10.80
2022-10-10T07:21:03.483Z,11.00
2022-10-10T07:22:03.489Z,11.00
2022-10-10T07:23:03.578Z,11.10
2022-10-10T07:24:02.688Z,11.20
2022-10-10T07:25:02.714Z,11.30
2022-10-10T07:26:02.794Z,11.40
2022-10-10T07:27:07.933Z,11.50
2022-10-10T07:28:02.782Z,11.60
2022-10-10T07:29:02.865Z,11.70
2022-10-10T07:30:02.832Z,11.80
2022-10-10T07:31:02.908Z,11.90
2022-10-10T07:32:02.936Z,12.00
2022-10-10T07:33:02.895Z,12.10
2022-10-10T07:34:02.857Z,12.20
2022-10-10T07:35:02.856Z,12.30
2022-10-10T07:36:02.837Z,12.30
2022-10-10T07:37:02.811Z,12.40
2022-10-10T07:38:02.923Z,12.50
2022-10-10T07:39:03.022Z,12.50
2022-10-10T07:40:03.097Z,12.60
2022-10-10T07:41:03.076Z,12.70
2022-10-10T07:42:03.138Z,12.70
2022-10-10T07:43:03.296Z,12.80
2022-10-10T07:44:03.314Z,12.80
2022-10-10T07:45:03.307Z,12.90
2022-10-10T07:46:04.057Z,12.90
2022-10-10T07:47:03.374Z,13.00
2022-10-10T07:48:03.413Z,13.10
2022-10-10T07:49:03.411Z,13.10
2022-10-10T07:50:03.369Z,13.20
2022-10-10T07:51:03.371Z,13.20
2022-10-10T07:52:03.406Z,13.30
2022-10-10T07:53:03.400Z,13.30
2022-10-10T07:54:03.394Z,13.30
2022-10-10T07:55:03.479Z,13.30
2022-10-10T07:56:03.614Z,13.40
2022-10-10T07:57:03.595Z,13.40
2022-10-10T07:58:03.502Z,13.30
2022-10-10T07:59:03.558Z,13.30
2022-10-10T08:00:03.615Z,13.40
2022-10-10T08:01:02.677Z,13.30
2022-10-10T08:02:02.681Z,13.40
2022-10-10T08:03:02.696Z,13.40
2022-10-10T08:04:02.878Z,13.40
2022-10-10T08:05:02.898Z,13.40
2022-10-10T08:06:02.888Z,13.40
2022-10-10T08:07:03.026Z,13.50
2022-10-10T08:08:02.888Z,13.50
2022-10-10T08:09:03.068Z,13.50
2022-10-10T08:10:03.054Z,13.50
2022-10-10T08:11:03.079Z,13.60
2022-10-10T08:12:03.056Z,13.60
2022-10-10T08:13:03.062Z,13.60
2022-10-10T08:14:02.952Z,13.60
2022-10-10T08:15:03.093Z,13.60
2022-10-10T08:16:02.901Z,13.60
2022-10-10T08:17:03.023Z,13.60
2022-10-10T08:18:03.077Z,13.70
2022-10-10T08:19:03.238Z,13.70
2022-10-10T08:20:03.189Z,13.70
2022-10-10T08:21:03.340Z,13.80
2022-10-10T08:22:03.335Z,13.80
2022-10-10T08:23:03.263Z,13.80
2022-10-10T08:24:03.291Z,13.80
2022-10-10T08:25:03.279Z,13.90
2022-10-10T08:26:03.261Z,13.90
2022-10-10T08:27:03.335Z,13.90
2022-10-10T08:28:03.330Z,13.90
2022-10-10T08:29:03.434Z,14.00
2022-10-10T08:30:03.488Z,14.00
2022-10-10T08:31:05.460Z,14.00
2022-10-10T08:32:03.496Z,14.00
2022-10-10T08:33:03.453Z,14.00
2022-10-10T08:34:03.510Z,14.00
2022-10-10T08:35:03.586Z,14.00
2022-10-10T08:36:03.539Z,14.10
2022-10-10T08:37:03.531Z,14.10
2022-10-10T08:38:03.490Z,14.10
2022-10-10T08:39:03.613Z,14.10
2022-10-10T08:40:03.584Z,14.10
2022-10-10T08:41:02.721Z,14.10
2022-10-10T08:42:02.731Z,14.10
2022-10-10T08:43:02.683Z,14.10
2022-10-10T08:44:03.606Z,14.20
2022-10-10T08:45:03.566Z,14.20
2022-10-10T08:46:03.597Z,14.20
2022-10-10T08:47:02.687Z,14.30
2022-10-10T08:48:03.591Z,14.30
2022-10-10T08:49:02.686Z,14.30
2022-10-10T08:50:03.619Z,14.40
2022-10-10T08:51:02.626Z,14.40
2022-10-10T08:52:02.650Z,14.40
2022-10-10T08:53:02.772Z,14.40
2022-10-10T08:54:02.726Z,14.50
2022-10-10T08:55:02.750Z,14.40
2022-10-10T08:56:02.882Z,14.50
2022-10-10T08:57:02.738Z,14.50
2022-10-10T08:58:02.791Z,14.50
2022-10-10T08:59:02.799Z,14.50
2022-10-10T09:00:02.758Z,14.50
2022-10-10T09:01:02.871Z,14.50
2022-10-10T09:02:17.462Z,14.50
2022-10-10T09:03:02.968Z,14.50
2022-10-10T09:04:03.015Z,14.60
2022-10-10T09:05:02.986Z,14.60
2022-10-10T09:06:03.073Z,14.60
2022-10-10T09:07:02.973Z,14.60
2022-10-10T09:08:02.986Z,14.70
2022-10-10T09:09:03.101Z,14.70
2022-10-10T09:10:02.996Z,14.70
2022-10-10T09:11:02.947Z,14.80
2022-10-10T09:12:03.059Z,14.80
2022-10-10T09:13:02.977Z,14.80
2022-10-10T09:14:03.020Z,14.80
2022-10-10T09:15:03.068Z,14.90
2022-10-10T09:16:03.009Z,14.90
2022-10-10T09:17:03.197Z,14.90
2022-10-10T09:18:03.170Z,15.00
2022-10-10T09:19:03.189Z,15.00
2022-10-10T09:20:03.185Z,15.00
2022-10-10T09:21:03.219Z,15.10
2022-10-10T09:22:03.144Z,15.10
2022-10-10T09:23:03.148Z,15.10
2022-10-10T09:24:03.172Z,15.20
2022-10-10T09:25:03.276Z,15.20
2022-10-10T09:26:05.365Z,15.20
2022-10-10T09:27:03.273Z,15.20
2022-10-10T09:28:03.281Z,15.20
2022-10-10T09:29:03.358Z,15.30
2022-10-10T09:30:03.321Z,15.30
2022-10-10T09:31:03.446Z,15.30
2022-10-10T09:32:03.532Z,15.30
2022-10-10T09:33:03.543Z,15.30
2022-10-10T09:34:02.673Z,15.40
2022-10-10T09:35:02.679Z,15.40
2022-10-10T09:36:02.774Z,15.40
2022-10-10T09:37:02.836Z,15.40
2022-10-10T09:38:02.805Z,15.50
2022-10-10T09:39:02.835Z,15.50
2022-10-10T09:40:02.930Z,15.50
2022-10-10T09:41:02.874Z,15.50
2022-10-10T09:42:03.012Z,15.50
2022-10-10T09:43:02.973Z,15.50
2022-10-10T09:44:02.971Z,15.60
2022-10-10T09:45:02.897Z,15.60
2022-10-10T09:46:02.853Z,15.60
2022-10-10T09:47:02.913Z,15.60
2022-10-10T09:48:02.920Z,15.60
2022-10-10T09:49:02.966Z,15.60
2022-10-10T09:51:02.927Z,15.70
2022-10-10T09:52:02.902Z,15.70
2022-10-10T09:53:02.901Z,15.70
2022-10-10T09:54:02.868Z,15.70
2022-10-10T09:55:02.952Z,15.70
2022-10-10T09:56:02.911Z,15.80
2022-10-10T09:57:02.936Z,15.80
2022-10-10T09:58:02.892Z,15.80
2022-10-10T09:59:02.897Z,15.80
2022-10-10T10:00:03.938Z,15.80
2022-10-10T10:01:03.042Z,15.80
2022-10-10T10:02:03.048Z,15.80
2022-10-10T10:03:02.948Z,15.90
2022-10-10T10:04:11.298Z,15.90
2022-10-10T10:05:03.050Z,15.90
2022-10-10T10:06:03.040Z,15.90
2022-10-10T10:07:03.064Z,15.90
2022-10-10T10:08:03.037Z,16.00
2022-10-10T10:09:03.147Z,16.00
2022-10-10T10:10:03.381Z,16.00
2022-10-10T10:11:03.286Z,16.00
2022-10-10T10:12:03.298Z,16.10
2022-10-10T10:13:03.530Z,16.10
2022-10-10T10:14:03.436Z,16.10
2022-10-10T10:15:03.492Z,16.10
2022-10-10T10:16:03.473Z,16.20
2022-10-10T10:17:03.682Z,16.20
2022-10-10T10:18:02.690Z,16.20
2022-10-10T10:19:02.651Z,16.20
2022-10-10T10:20:02.924Z,16.20
2022-10-10T10:21:02.765Z,16.30
2022-10-10T10:22:02.823Z,16.30
2022-10-10T10:23:02.939Z,16.30
2022-10-10T10:24:03.018Z,16.30
2022-10-10T10:25:02.947Z,16.30
2022-10-10T10:26:02.979Z,16.30
2022-10-10T10:27:03.031Z,16.40
2022-10-10T10:28:03.157Z,16.40
2022-10-10T10:29:03.064Z,16.40
2022-10-10T10:30:03.075Z,16.40
2022-10-10T10:31:03.225Z,16.40
2022-10-10T10:32:03.378Z,16.50
2022-10-10T10:33:03.411Z,16.50
2022-10-10T10:34:03.357Z,16.50
2022-10-10T10:35:03.323Z,16.50
2022-10-10T10:36:03.400Z,16.50
2022-10-10T10:37:03.442Z,16.60
2022-10-10T10:38:03.595Z,16.60
2022-10-10T10:39:02.651Z,16.60
2022-10-10T10:40:02.758Z,16.60
2022-10-10T10:41:02.715Z,16.70
2022-10-10T10:42:02.762Z,16.70
2022-10-10T10:43:02.822Z,16.70
2022-10-10T10:44:02.931Z,16.70
2022-10-10T10:45:02.849Z,16.80
2022-10-10T10:46:03.070Z,16.80
2022-10-10T10:47:02.975Z,16.80
2022-10-10T10:48:03.059Z,16.80
2022-10-10T10:49:02.991Z,16.80
2022-10-10T10:50:03.138Z,16.80
2022-10-10T10:51:03.451Z,16.90
2022-10-10T10:52:03.215Z,16.90
2022-10-10T10:53:03.162Z,16.90
2022-10-10T10:54:03.169Z,16.90
2022-10-10T10:55:03.054Z,16.90
2022-10-10T10:56:03.085Z,16.90
2022-10-10T10:57:06.551Z,16.90
2022-10-10T10:58:37.541Z,16.90
2022-10-10T10:59:38.848Z,16.90
2022-10-10T11:00:33.642Z,16.90
2022-10-10T11:01:22.737Z,16.90
2022-10-10T11:02:03.137Z,16.90
2022-10-10T11:03:14.748Z,17.00
2022-10-10T11:05:16.762Z,17.00
2022-10-10T11:05:21.710Z,17.00
2022-10-10T11:06:03.035Z,17.00
2022-10-10T11:07:17.623Z,17.00
2022-10-10T11:08:03.048Z,17.00
2022-10-10T11:09:03.021Z,17.00
2022-10-10T11:10:03.043Z,17.00
2022-10-10T11:11:03.242Z,17.00
2022-10-10T11:12:04.484Z,17.00
2022-10-10T11:13:03.259Z,17.00
2022-10-10T11:14:03.290Z,17.00
2022-10-10T11:15:03.291Z,17.10
2022-10-10T11:16:08.690Z,17.10
2022-10-10T11:17:03.305Z,17.10
2022-10-10T11:18:03.335Z,17.10
2022-10-10T11:19:03.350Z,17.00
2022-10-10T11:20:03.296Z,17.00
2022-10-10T11:21:03.537Z,17.10
2022-10-10T11:22:03.354Z,17.10
2022-10-10T11:23:08.040Z,17.10
2022-10-10T11:24:03.463Z,17.00
2022-10-10T11:25:02.726Z,17.00
2022-10-10T11:26:02.910Z,17.00
2022-10-10T11:27:03.010Z,17.00
2022-10-10T11:28:02.957Z,17.00
2022-10-10T11:29:03.152Z,16.90
2022-10-10T11:30:02.988Z,17.00
2022-10-10T11:31:03.519Z,17.00
2022-10-10T11:32:03.181Z,17.00
2022-10-10T11:33:03.302Z,17.00
2022-10-10T11:34:03.263Z,17.00
2022-10-10T11:35:03.392Z,17.00
2022-10-10T11:36:03.534Z,17.00
2022-10-10T11:37:03.383Z,17.00
2022-10-10T11:38:03.369Z,17.10
2022-10-10T11:39:03.348Z,17.10
2022-10-10T11:40:03.311Z,17.10
2022-10-10T11:41:03.373Z,17.10
2022-10-10T11:42:03.410Z,17.10
2022-10-10T11:43:03.357Z,17.20
2022-10-10T11:44:03.398Z,17.20
2022-10-10T11:45:03.431Z,17.20
2022-10-10T11:46:03.616Z,17.20
2022-10-10T11:47:02.687Z,17.20
2022-10-10T11:48:02.740Z,17.20
2022-10-10T11:49:02.766Z,17.30
2022-10-10T11:50:02.706Z,17.30
2022-10-10T11:51:02.760Z,17.30
2022-10-10T11:52:15.225Z,17.30
2022-10-10T11:53:02.658Z,17.30
2022-10-10T11:54:02.787Z,17.30
2022-10-10T11:55:02.797Z,17.40
2022-10-10T11:56:03.210Z,17.40
2022-10-10T11:57:02.959Z,17.40
2022-10-10T11:58:02.949Z,17.40
2022-10-10T11:59:03.034Z,17.40
2022-10-10T12:00:03.125Z,17.40
2022-10-10T12:01:03.178Z,17.40
2022-10-10T12:02:03.098Z,17.40
2022-10-10T12:03:03.279Z,17.50
2022-10-10T12:04:03.165Z,17.50
2022-10-10T12:05:03.291Z,17.50
2022-10-10T12:06:03.860Z,17.50
2022-10-10T12:07:03.519Z,17.50
2022-10-10T12:08:03.471Z,17.50
2022-10-10T12:09:03.507Z,17.50
2022-10-10T12:10:03.462Z,17.50
2022-10-10T12:11:03.497Z,17.60
2022-10-10T12:12:03.460Z,17.60
2022-10-10T12:13:03.547Z,17.60
2022-10-10T12:14:02.806Z,17.60
2022-10-10T12:15:02.766Z,17.60
2022-10-10T12:16:03.078Z,17.60
2022-10-10T12:17:02.965Z,17.60
2022-10-10T12:18:02.898Z,17.60
2022-10-10T12:19:02.898Z,17.60
2022-10-10T12:20:02.995Z,17.60
2022-10-10T12:21:03.112Z,17.60
2022-10-10T12:22:03.164Z,17.70
2022-10-10T12:23:03.199Z,17.70
2022-10-10T12:24:03.153Z,17.70
2022-10-10T12:25:03.320Z,17.70
2022-10-10T12:26:03.512Z,17.70
2022-10-10T12:27:03.434Z,17.70
2022-10-10T12:28:03.523Z,17.70
2022-10-10T12:29:04.674Z,17.70
2022-10-10T12:30:02.853Z,17.70
2022-10-10T12:31:02.997Z,17.70
2022-10-10T12:32:02.713Z,17.70
2022-10-10T12:33:02.810Z,17.70
2022-10-10T12:34:02.715Z,17.80
2022-10-10T12:35:02.901Z,17.80
2022-10-10T12:36:03.169Z,17.80
2022-10-10T12:37:06.678Z,17.80
2022-10-10T12:38:02.998Z,17.80
2022-10-10T12:39:02.973Z,17.80
2022-10-10T12:40:03.080Z,17.80
2022-10-10T12:41:03.578Z,17.80
2022-10-10T12:42:03.291Z,17.80
2022-10-10T12:43:03.418Z,17.90
2022-10-10T12:44:03.394Z,17.90
2022-10-10T12:45:03.367Z,17.90
2022-10-10T12:46:03.336Z,17.90
2022-10-10T12:47:06.608Z,17.90
2022-10-10T12:48:06.157Z,17.90
2022-10-10T12:49:03.508Z,17.90
2022-10-10T12:50:02.675Z,17.90
2022-10-10T12:51:02.753Z,18.00
2022-10-10T12:52:02.664Z,17.90
2022-10-10T12:53:02.792Z,18.00
2022-10-10T12:54:02.790Z,17.90
2022-10-10T12:55:06.433Z,18.00
2022-10-10T12:56:02.807Z,18.00
2022-10-10T12:57:02.844Z,18.00
2022-10-10T12:58:02.763Z,18.00
2022-10-10T12:59:02.858Z,18.00
2022-10-10T13:00:02.814Z,18.00
2022-10-10T13:01:03.310Z,18.00
2022-10-10T13:02:03.220Z,18.10
2022-10-10T13:03:03.168Z,18.10
2022-10-10T13:04:03.299Z,18.10
2022-10-10T13:05:03.225Z,18.10
2022-10-10T13:06:03.204Z,18.10
2022-10-10T13:07:03.302Z,18.10
2022-10-10T13:08:03.415Z,18.00
2022-10-10T13:09:03.465Z,18.00
2022-10-10T13:10:03.548Z,18.00